Terminal Aerodrome Forecast
Issued by NWS Shreveport, LA

Home | Current Version | Previous Version | Text Only | Print | Product List | Glossary On
Versions: 1 2 3 4 5 6 7 8 9 10 11 12
000
FTUS44 KSHV 012300
TAFMLU
TAF
KMLU 012320Z 0200/0224 17005KT P6SM SCT070
     FM020800 18003KT 4SM BR BKN015
      TEMPO 0210/0214 1SM BR OVC008
     FM021500 18006KT P6SM VCSH SCT015 BKN030
     FM021800 19010KT P6SM VCSH OVC040=

USA.gov is the U.S. government's official web portal to all federal, state and local government web resources and services.